Hors Challenge

Le Trail De La Montagne Saint-Pierre à Lanaye (7.00 km)

dimanche 10 mars 2019

Vous pouvez trouver Le classement original sur : www.otopservices.be  
 
LE TRAIL DE LA MONTAGNE SAINT-PIERRE - LANAYE
DISTANCE : 6.96 km
dimanche 10 mars 2019
 
Place dos NOM Catégorie Pl/cat temps temps/km Vitesse
01:00:00              
1 2917 NOA DEWALLEF SENIOR H 1 00:31:24 04:31 13.30
2 2949 KEVIN MIEVIS SENIOR H 2 00:32:13 04:38 12.96
3 2912 ROMAN DE WINTER SENIOR H 3 00:33:39 04:50 12.41
4 2966 SIMON SCOHIER ESPOIR H 1 00:33:53 04:52 12.33
5 2920 NOAH DUSPEAUX SENIOR H 4 00:33:59 04:53 12.29
6 2927 BENOIT HAEPERS SENIOR H 5 00:34:36 04:58 12.07
7 2905 LAURA BODSON SENIOR D 1 00:36:24 05:14 11.47
8 2926 NATACHA GAUSSIN SENIOR D 2 00:36:43 05:17 11.37
9 2971 LAURENCE TENEY SENIOR D 3 00:38:03 05:28 10.98
10 2935 FABIEN WELLE VETERAN 1 1 00:38:25 05:31 10.87
11 2976 CHARLOTTE VANDEVEN ESPOIR D 1 00:38:29 05:32 10.85
12 2974 MARY TISTAERT AINÉE 1 1 00:38:40 05:33 10.80
13 2960 DIEGO RIHON ESPOIR H 2 00:40:21 05:48 10.35
14 2953 DAVID PARTOUNE VETERAN 1 2 00:40:21 05:48 10.35
15 2965 ELISA SCHMITS ESPOIR D 2 00:42:41 06:08 9.78
16 2907 PHILIPPE CARTA VÉTÉRAN 2 1 00:43:29 06:15 9.60
17 2967 PAYMAN SHIRI SENIOR H 6 00:43:29 06:15 9.60
18 2988 BENOIT SERVAIS VETERAN 1 3 00:44:00 06:19 9.49
19 2919 JULIE DUBUISSON SENIOR D 4 00:44:16 06:22 9.43
20 2950 RICHARD MRCELA VETERAN 1 4 00:44:25 06:23 9.40
21 2975 JULIEN VAN LEEUW ESPOIR H 3 00:45:27 06:32 9.19
22 2961 MELIA ROQUET ESPOIR D 3 00:46:03 06:37 9.07
23 2980 LINE VROOMEN ESPOIR D 4 00:46:10 06:38 9.05
24 2904 TIM BLOCKX SENIOR H 7 00:46:11 06:38 9.04
25 2962 RAF ROSSEELS VETERAN 1 5 00:46:11 06:38 9.04
26 2952 LOGAN NEYENS SENIOR H 8 00:46:31 06:41 8.98
27 2990 BERNARD GOIRE VÉTÉRAN 2 2 00:46:50 06:44 8.92
28 2945 ANNA MAURISSEN SENIOR D 5 00:47:52 06:53 8.72
29 2985 CLAIRE HENQUET SENIOR D 6 00:48:03 06:54 8.69
30 2943 LAURA MASSET ESPOIR D 5 00:48:05 06:54 8.69
31 2909 BENEDICTE CHARLOT AINÉE 1 2 00:48:13 06:56 8.66
32 2931 PATRICK JURDAN VÉTÉRAN 2 3 00:48:46 07:00 8.56
33 2936 FABIEN WELLE VETERAN 1 6 00:48:48 07:01 8.56
34 2986 JUDITH BUDDENBOIS AINÉE 1 3 00:49:25 07:06 8.45
35 2901 ADRIANO AZZOLINI VÉTÉRAN 2 4 00:49:32 07:07 8.43
36 2942 LAURENCE MARECHAL AINÉE 1 4 00:49:55 07:10 8.37
37 2934 LIONEL LEGRAND VETERAN 1 7 00:49:59 07:11 8.36
38 2923 ANDREA FAYMONVILLE SENIOR D 7 00:50:07 07:12 8.33
39 2989 MARTINE PONCIN AINÉE 1 5 00:50:21 07:14 8.29
40 2987 JO GEUZAINE VÉTÉRAN 2 5 00:50:21 07:14 8.29
41 2984 NATHAN THONON SENIOR H 9 00:50:24 07:14 8.29
42 2983 JUSTINE HANSON SENIOR D 8 00:50:24 07:14 8.29
43 2925 AURELIE FRAIKIN AINÉE 1 6 00:50:36 07:16 8.25
44 2928 LAURENCE HOSTIER SENIOR D 9 00:51:22 07:23 8.13
45 2939 NATHAN LOHEST SENIOR H 10 00:51:22 07:23 8.13
46 2906 ROSELYNE BOLLET SENIOR D 10 00:51:32 07:24 8.10
47 2902 CAMILLE BAIVIER SENIOR D 11 00:52:08 07:29 8.01
48 2947 LUDIVINE MERTENS SENIOR D 12 00:53:30 07:41 7.81
49 2903 PHILIPPE BEAURAIN VETERAN 1 8 00:53:48 07:44 7.76
50 2944 PHILIPPE MATHY VÉTÉRAN 2 6 00:54:05 07:46 7.72
51 2913 CATHERINE DELANNOY AINÉE 1 7 00:54:06 07:46 7.72
52 2999 HENRY HARDY VÉTÉRAN 4 1 00:54:13 07:47 7.70
53 2938 CAROLINE LHONEUX SENIOR D 13 00:54:16 07:48 7.70
54 2911 QUENTIN DE WINTER ESPOIR H 4 00:54:30 07:50 7.66
55 2910 MARC DE WINTER VETERAN 1 9 00:54:31 07:50 7.66
56 2970 CÉLINE TANTIMONACO SENIOR D 14 00:54:37 07:51 7.65
57 2982 SOPHIE XHARDE SENIOR D 15 00:54:40 07:51 7.64
58 2937 THIBAUT LEYENS ESPOIR H 5 00:54:57 07:54 7.60
59 2977 DOMINIQUE VANOIRBECK AINÉE 1 8 00:54:58 07:54 7.60
60 2929 VANESSA JANS AINÉE 1 9 00:56:25 08:06 7.40
61 2979 AUDREY VOLPAGNI SENIOR D 16 00:56:32 08:07 7.39
62 2959 SYLVIE RAHIER AINÉE 1 10 00:57:44 08:18 7.23
63 2972 ERIC THONUS VÉTÉRAN 2 7 00:57:53 08:19 7.21
64 2956 ALAIN PERIN VETERAN 3 1 00:58:08 08:21 7.18
65 2921 SYLVIE EMBRECHTS AINÉE 1 11 00:58:15 08:22 7.17
66 2993 PINO POLLARD VÉTÉRAN 2 8 00:58:51 08:27 7.10
67 2701 CAROLINE DUBOIS SENIOR D 17 00:59:43 08:35 6.99
68 2951 RACHEL NEUPREZ AINÉE 1 12 01:00:31 08:42 6.90
69 2957 CAROLINE PIETTE SENIOR D 18 01:00:51 08:45 6.86
70 2994 ALEXIS THOMAS SENIOR H 11 01:01:20 08:49 6.81
71 2973 GENEVIEVE THYS AINÉE 2 1 01:02:14 08:56 6.71
72 2948 VERONIQUE MEYERS AINÉE 1 13 01:02:49 09:01 6.65
73 2963 WILLIBRORD RUTTEN VETERAN 3 2 01:05:20 09:23 6.39
74 2968 KIRSTEN SMITS AINÉE 1 14 01:05:20 09:23 6.39
75 2992 CATHERINE BOURDOUXHE AINÉE 1 15 01:06:27 09:33 6.28
76 2915 NATACHA DEMARTEAU AINÉE 1 16 01:06:27 09:33 6.28
77 2981 FRANCOISE WUIDAR AINÉE 1 17 01:29:10 12:49 4.68
78 2969 NATHALIE STRUYS AINÉE 2 2 01:32:41 13:19 4.51
79 2991 ADELINE DUJARDIN SENIOR D 19 01:41:55 14:39 4.10